createdAt,value
2023-05-21T00:00:53.882Z,9.67
2023-05-21T00:05:57.089Z,9.67
2023-05-21T00:10:59.749Z,9.70
2023-05-21T00:16:02.485Z,9.77
2023-05-21T00:21:05.960Z,9.81
2023-05-21T00:26:08.696Z,9.86
2023-05-21T00:31:11.338Z,9.83
2023-05-21T00:36:16.576Z,9.85
2023-05-21T00:41:19.838Z,9.82
2023-05-21T00:46:23.260Z,9.88
2023-05-21T00:51:30.443Z,9.88
2023-05-21T00:56:33.313Z,9.86
2023-05-21T01:01:37.501Z,9.87
2023-05-21T01:06:40.299Z,9.84
2023-05-21T01:11:46.980Z,9.77
2023-05-21T01:16:50.814Z,9.79
2023-05-21T01:22:00.544Z,9.76
2023-05-21T01:27:06.742Z,9.77
2023-05-21T01:32:38.608Z,9.76
2023-05-21T01:37:49.621Z,9.77
2023-05-21T01:42:52.707Z,9.75
2023-05-21T01:47:56.640Z,9.80
2023-05-21T01:53:01.319Z,9.81
2023-05-21T01:58:04.411Z,9.81
2023-05-21T02:03:08.176Z,9.72
2023-05-21T02:08:11.373Z,9.83
2023-05-21T02:13:14.017Z,9.84
2023-05-21T02:18:17.101Z,9.85
2023-05-21T02:23:40.071Z,9.87
2023-05-21T02:28:42.798Z,9.93
2023-05-21T02:33:45.556Z,9.90
2023-05-21T02:38:48.309Z,9.90
2023-05-21T02:43:51.185Z,9.98
2023-05-21T02:48:54.644Z,10.01
2023-05-21T02:53:57.704Z,10.04
2023-05-21T02:59:00.356Z,9.80
2023-05-21T03:04:03.000Z,10.16
2023-05-21T03:09:06.086Z,10.25
2023-05-21T03:14:09.965Z,10.51
2023-05-21T03:19:13.367Z,10.53
2023-05-21T03:24:16.111Z,10.77
2023-05-21T03:29:18.888Z,11.03
2023-05-21T03:34:21.913Z,11.19
2023-05-21T03:39:25.589Z,11.41
2023-05-21T03:44:32.629Z,11.31
2023-05-21T03:50:09.348Z,11.18
2023-05-21T03:55:12.716Z,11.13
2023-05-21T04:00:16.002Z,10.76
2023-05-21T04:05:19.231Z,10.57
2023-05-21T04:10:23.260Z,10.57
2023-05-21T04:15:27.595Z,10.73
2023-05-21T04:20:31.088Z,10.72
2023-05-21T04:25:35.249Z,10.94
2023-05-21T04:30:38.481Z,10.91
2023-05-21T04:35:44.625Z,10.85
2023-05-21T04:40:50.814Z,10.66
2023-05-21T04:45:56.536Z,10.52
2023-05-21T04:50:59.985Z,10.79
2023-05-21T04:56:04.121Z,10.81
2023-05-21T05:01:08.973Z,10.73
2023-05-21T05:06:11.735Z,10.81
2023-05-21T05:11:15.205Z,11.03
2023-05-21T05:16:18.486Z,11.49
2023-05-21T05:21:22.661Z,12.26
2023-05-21T05:26:26.203Z,12.62
2023-05-21T05:31:28.979Z,13.00
2023-05-21T05:36:31.738Z,12.58
2023-05-21T05:41:34.495Z,12.22
2023-05-21T05:46:38.299Z,12.20
2023-05-21T05:51:41.640Z,12.08
2023-05-21T05:56:44.325Z,12.03
2023-05-21T06:01:47.344Z,11.79
2023-05-21T06:06:50.157Z,11.54
2023-05-21T06:11:52.933Z,11.91
2023-05-21T06:16:55.923Z,11.86
2023-05-21T06:21:59.257Z,11.99
2023-05-21T06:27:02.196Z,11.97
2023-05-21T06:32:05.361Z,11.87
2023-05-21T06:37:08.107Z,11.78
2023-05-21T06:42:10.966Z,12.13
2023-05-21T06:47:27.455Z,13.40
2023-05-21T06:52:31.918Z,13.58
2023-05-21T06:57:38.371Z,13.54
2023-05-21T07:02:41.711Z,13.87
2023-05-21T07:07:44.584Z,14.09
2023-05-21T07:12:47.210Z,13.82
2023-05-21T07:17:51.279Z,13.35
2023-05-21T07:22:55.064Z,13.65
2023-05-21T07:27:58.570Z,13.80
2023-05-21T07:33:01.420Z,13.22
2023-05-21T07:38:04.850Z,12.70
2023-05-21T07:43:07.876Z,13.19
2023-05-21T07:48:12.456Z,13.29
2023-05-21T07:53:25.736Z,13.91
2023-05-21T07:58:32.611Z,14.19
2023-05-21T08:03:35.602Z,14.28
2023-05-21T08:08:38.649Z,13.99
2023-05-21T08:13:41.720Z,14.58
2023-05-21T08:18:47.150Z,14.62
2023-05-21T08:23:53.053Z,14.07
2023-05-21T08:28:56.583Z,13.68
2023-05-21T08:33:59.268Z,13.36
2023-05-21T08:39:14.070Z,13.44
2023-05-21T08:44:24.211Z,13.54
2023-05-21T08:49:31.074Z,13.86
2023-05-21T08:54:34.393Z,13.63
2023-05-21T08:59:40.121Z,13.54
2023-05-21T09:04:50.059Z,13.91
2023-05-21T09:09:57.580Z,14.15
2023-05-21T09:15:02.176Z,14.72
2023-05-21T09:20:16.535Z,14.85
2023-05-21T09:25:30.062Z,14.88
2023-05-21T09:30:38.317Z,14.25
2023-05-21T09:35:47.437Z,14.93
2023-05-21T09:40:54.848Z,15.21
2023-05-21T09:46:02.016Z,15.60
2023-05-21T09:51:18.649Z,15.18
2023-05-21T09:56:23.676Z,15.33
2023-05-21T10:01:27.500Z,16.01
2023-05-21T10:06:33.759Z,16.58
2023-05-21T10:11:37.509Z,17.03
2023-05-21T10:16:40.992Z,17.46
2023-05-21T10:21:45.042Z,17.63
2023-05-21T10:26:51.400Z,18.62
2023-05-21T10:31:54.027Z,18.44
2023-05-21T10:36:58.588Z,17.78
2023-05-21T10:42:18.702Z,17.63
2023-05-21T10:47:46.131Z,17.72
2023-05-21T10:53:10.648Z,18.06
2023-05-21T10:58:29.848Z,18.31
2023-05-21T11:03:37.427Z,19.05
2023-05-21T11:08:48.112Z,18.68
2023-05-21T11:13:50.843Z,18.49
2023-05-21T11:18:55.136Z,19.11
2023-05-21T11:24:02.833Z,19.25
2023-05-21T11:29:05.867Z,19.68
2023-05-21T11:34:11.576Z,19.74
2023-05-21T11:39:22.264Z,18.98
2023-05-21T11:44:42.756Z,18.52
2023-05-21T11:49:46.455Z,18.28
2023-05-21T11:54:54.148Z,18.11
2023-05-21T12:00:01.460Z,18.03
2023-05-21T12:05:10.189Z,17.54
2023-05-21T12:10:13.393Z,17.45
2023-05-21T12:15:18.098Z,17.24
2023-05-21T12:20:21.216Z,17.08
2023-05-21T12:25:23.996Z,16.89
2023-05-21T12:30:27.204Z,17.17
2023-05-21T12:35:30.655Z,17.38
2023-05-21T12:40:38.198Z,17.88
2023-05-21T12:45:41.621Z,18.16
2023-05-21T12:50:44.386Z,17.49
2023-05-21T12:55:47.341Z,16.88
2023-05-21T13:00:49.965Z,16.79
2023-05-21T13:06:00.082Z,16.98
2023-05-21T13:11:03.589Z,17.03
2023-05-21T13:16:06.678Z,17.15
2023-05-21T13:21:09.394Z,17.67
2023-05-21T13:26:12.089Z,18.10
2023-05-21T13:31:15.734Z,18.57
2023-05-21T13:36:18.381Z,18.93
2023-05-21T13:41:21.372Z,18.84
2023-05-21T13:46:24.222Z,18.12
2023-05-21T13:56:33.997Z,17.88
2023-05-21T14:01:36.869Z,18.22
2023-05-21T14:06:39.773Z,18.37
2023-05-21T14:11:42.724Z,18.64
2023-05-21T14:16:47.383Z,18.58
2023-05-21T14:21:52.334Z,17.94
2023-05-21T14:26:54.976Z,17.54
2023-05-21T14:31:57.579Z,17.24
2023-05-21T14:37:00.354Z,17.69
2023-05-21T14:42:07.644Z,18.15
2023-05-21T14:47:10.342Z,17.96
2023-05-21T14:52:12.970Z,17.56
2023-05-21T14:57:15.664Z,17.46
2023-05-21T15:02:18.366Z,17.16
2023-05-21T15:07:21.114Z,17.01
2023-05-21T15:12:23.797Z,16.97
2023-05-21T15:17:26.643Z,17.23
2023-05-21T15:22:29.435Z,17.30
2023-05-21T15:27:32.425Z,17.60
2023-05-21T15:32:35.060Z,17.52
2023-05-21T15:37:37.723Z,17.35
2023-05-21T15:42:40.325Z,17.16
2023-05-21T15:47:43.352Z,17.28
2023-05-21T15:52:46.070Z,17.16
2023-05-21T15:57:48.708Z,16.99
2023-05-21T16:02:51.574Z,17.07
2023-05-21T16:07:54.222Z,16.91
2023-05-21T16:12:56.908Z,17.03
2023-05-21T16:17:59.632Z,16.91
2023-05-21T16:23:03.841Z,16.76
2023-05-21T16:28:06.467Z,16.63
2023-05-21T16:33:09.750Z,16.69
2023-05-21T16:38:12.567Z,16.76
2023-05-21T16:43:15.888Z,16.55
2023-05-21T16:48:18.798Z,16.44
2023-05-21T16:53:21.787Z,16.26
2023-05-21T16:58:24.559Z,16.16
2023-05-21T17:03:27.938Z,15.91
2023-05-21T17:08:30.725Z,15.55
2023-05-21T17:13:33.616Z,15.44
2023-05-21T17:18:36.182Z,15.43
2023-05-21T17:23:38.901Z,15.21
2023-05-21T17:28:41.748Z,15.00
2023-05-21T17:33:44.350Z,14.80
2023-05-21T17:38:47.027Z,14.73
2023-05-21T17:43:50.361Z,14.63
2023-05-21T17:48:53.206Z,14.52
2023-05-21T17:53:56.393Z,14.37
2023-05-21T17:58:59.107Z,14.27
2023-05-21T18:04:02.981Z,14.03
2023-05-21T18:09:10.574Z,13.91
2023-05-21T18:14:13.234Z,13.60
2023-05-21T18:19:15.933Z,13.25
2023-05-21T18:24:18.675Z,13.05
2023-05-21T18:29:21.270Z,12.98
2023-05-21T18:34:23.907Z,12.59
2023-05-21T18:39:27.882Z,12.39
2023-05-21T18:44:32.651Z,12.19
2023-05-21T18:49:36.208Z,11.87
2023-05-21T18:54:39.236Z,11.83
2023-05-21T18:59:41.833Z,11.52
2023-05-21T19:04:44.640Z,11.42
2023-05-21T19:09:48.828Z,11.24
2023-05-21T19:14:51.941Z,11.09
2023-05-21T19:19:56.236Z,11.03
2023-05-21T19:24:59.562Z,11.03
2023-05-21T19:30:02.218Z,10.81
2023-05-21T19:35:11.408Z,10.68
2023-05-21T19:40:14.141Z,10.48
2023-05-21T19:45:16.761Z,10.33
2023-05-21T19:50:19.490Z,10.31
2023-05-21T19:55:22.821Z,10.27
2023-05-21T20:00:26.419Z,10.25
2023-05-21T20:05:29.027Z,10.14
2023-05-21T20:10:31.676Z,9.99
2023-05-21T20:15:34.401Z,9.79
2023-05-21T20:20:38.165Z,9.68
2023-05-21T20:25:41.133Z,9.66
2023-05-21T20:30:57.731Z,9.63
2023-05-21T20:36:01.139Z,9.51
2023-05-21T20:41:04.913Z,9.40
2023-05-21T20:46:07.920Z,9.40
2023-05-21T20:51:11.192Z,9.30
2023-05-21T20:56:17.012Z,9.09
2023-05-21T21:01:21.036Z,9.11
2023-05-21T21:06:26.158Z,9.06
2023-05-21T21:11:28.775Z,8.99
2023-05-21T21:16:31.376Z,9.00
2023-05-21T21:21:34.181Z,9.03
2023-05-21T21:26:37.469Z,9.17
2023-05-21T21:31:40.308Z,9.14
2023-05-21T21:36:42.937Z,9.10
2023-05-21T21:41:45.975Z,8.88
2023-05-21T21:46:51.610Z,8.84
2023-05-21T21:51:57.828Z,8.85
2023-05-21T21:57:00.863Z,8.91
2023-05-21T22:02:03.486Z,8.81
2023-05-21T22:07:06.203Z,8.85
2023-05-21T22:12:09.545Z,8.84
2023-05-21T22:17:12.213Z,8.82
2023-05-21T22:22:14.881Z,8.66
2023-05-21T22:27:17.471Z,8.50
2023-05-21T22:32:20.336Z,8.58
2023-05-21T22:37:26.199Z,8.64
2023-05-21T22:42:28.830Z,8.64
2023-05-21T22:47:32.313Z,8.59
2023-05-21T22:52:35.179Z,8.76
2023-05-21T22:57:38.094Z,8.79
2023-05-21T23:02:40.851Z,8.65
2023-05-21T23:07:43.524Z,8.57
2023-05-21T23:12:46.154Z,8.58
2023-05-21T23:17:48.951Z,8.60
2023-05-21T23:22:52.466Z,8.45
2023-05-21T23:27:55.636Z,8.40
2023-05-21T23:32:58.292Z,8.38
2023-05-21T23:38:01.028Z,8.38
2023-05-21T23:43:04.887Z,8.36
2023-05-21T23:48:07.882Z,8.36
2023-05-21T23:53:10.800Z,8.25
2023-05-21T23:58:13.422Z,8.19
